sensor_id;sensor_type;location;lat;lon;timestamp;temperature;humidity
22321;DHT22;11328;53.928;18.522;2023-08-17T00:02:19;20.80;99.90
22321;DHT22;11328;53.928;18.522;2023-08-17T00:04:46;20.80;99.90
22321;DHT22;11328;53.928;18.522;2023-08-17T00:07:13;20.80;99.90
22321;DHT22;11328;53.928;18.522;2023-08-17T00:09:40;20.80;99.90
22321;DHT22;11328;53.928;18.522;2023-08-17T00:12:07;20.80;99.90
22321;DHT22;11328;53.928;18.522;2023-08-17T00:14:34;20.80;99.90
22321;DHT22;11328;53.928;18.522;2023-08-17T00:17:01;20.80;99.90
22321;DHT22;11328;53.928;18.522;2023-08-17T00:19:29;20.80;99.90
22321;DHT22;11328;53.928;18.522;2023-08-17T00:21:56;20.90;99.90
22321;DHT22;11328;53.928;18.522;2023-08-17T00:24:23;20.90;99.90
22321;DHT22;11328;53.928;18.522;2023-08-17T00:26:50;20.80;99.90
22321;DHT22;11328;53.928;18.522;2023-08-17T00:29:17;20.80;99.90
22321;DHT22;11328;53.928;18.522;2023-08-17T00:31:44;20.80;99.90
22321;DHT22;11328;53.928;18.522;2023-08-17T00:34:11;20.80;99.90
22321;DHT22;11328;53.928;18.522;2023-08-17T00:36:38;20.70;99.90
22321;DHT22;11328;53.928;18.522;2023-08-17T00:39:05;20.70;99.90
22321;DHT22;11328;53.928;18.522;2023-08-17T00:41:33;20.70;99.90
22321;DHT22;11328;53.928;18.522;2023-08-17T00:44:00;20.80;99.90
22321;DHT22;11328;53.928;18.522;2023-08-17T00:46:27;20.70;99.90
22321;DHT22;11328;53.928;18.522;2023-08-17T00:48:56;20.70;99.90
22321;DHT22;11328;53.928;18.522;2023-08-17T00:51:25;20.60;99.90
22321;DHT22;11328;53.928;18.522;2023-08-17T00:54:01;20.60;99.90
22321;DHT22;11328;53.928;18.522;2023-08-17T00:56:29;20.60;99.90
22321;DHT22;11328;53.928;18.522;2023-08-17T00:58:56;20.60;99.90
22321;DHT22;11328;53.928;18.522;2023-08-17T01:01:24;20.60;99.90
22321;DHT22;11328;53.928;18.522;2023-08-17T01:03:51;20.60;99.90
22321;DHT22;11328;53.928;18.522;2023-08-17T01:06:18;20.60;99.90
22321;DHT22;11328;53.928;18.522;2023-08-17T01:08:46;20.50;99.90
22321;DHT22;11328;53.928;18.522;2023-08-17T01:17:03;20.50;99.90
22321;DHT22;11328;53.928;18.522;2023-08-17T01:19:38;20.40;99.90
22321;DHT22;11328;53.928;18.522;2023-08-17T01:22:08;20.40;99.90
22321;DHT22;11328;53.928;18.522;2023-08-17T01:24:37;20.40;99.90
22321;DHT22;11328;53.928;18.522;2023-08-17T01:27:04;20.40;99.90
22321;DHT22;11328;53.928;18.522;2023-08-17T01:29:31;20.40;99.90
22321;DHT22;11328;53.928;18.522;2023-08-17T01:32:12;20.40;99.90
22321;DHT22;11328;53.928;18.522;2023-08-17T01:34:49;20.30;99.90
22321;DHT22;11328;53.928;18.522;2023-08-17T01:37:21;20.30;99.90
22321;DHT22;11328;53.928;18.522;2023-08-17T01:39:55;20.30;99.90
22321;DHT22;11328;53.928;18.522;2023-08-17T01:42:24;20.30;99.90
22321;DHT22;11328;53.928;18.522;2023-08-17T01:44:52;20.30;99.90
22321;DHT22;11328;53.928;18.522;2023-08-17T01:47:23;20.30;99.90
22321;DHT22;11328;53.928;18.522;2023-08-17T01:49:50;20.20;99.90
22321;DHT22;11328;53.928;18.522;2023-08-17T01:52:17;20.20;99.90
22321;DHT22;11328;53.928;18.522;2023-08-17T01:54:44;20.20;99.90
22321;DHT22;11328;53.928;18.522;2023-08-17T01:57:11;20.30;99.90
22321;DHT22;11328;53.928;18.522;2023-08-17T01:59:38;20.30;99.90
22321;DHT22;11328;53.928;18.522;2023-08-17T02:02:05;20.30;99.90
22321;DHT22;11328;53.928;18.522;2023-08-17T02:04:32;20.40;99.90
22321;DHT22;11328;53.928;18.522;2023-08-17T02:06:59;20.30;99.90
22321;DHT22;11328;53.928;18.522;2023-08-17T02:09:26;20.30;99.90
22321;DHT22;11328;53.928;18.522;2023-08-17T02:11:53;20.20;99.90
22321;DHT22;11328;53.928;18.522;2023-08-17T02:14:20;20.30;99.90
22321;DHT22;11328;53.928;18.522;2023-08-17T02:16:47;20.30;99.90
22321;DHT22;11328;53.928;18.522;2023-08-17T02:19:14;20.20;99.90
22321;DHT22;11328;53.928;18.522;2023-08-17T02:21:41;20.20;99.90
22321;DHT22;11328;53.928;18.522;2023-08-17T02:24:08;20.20;99.90
22321;DHT22;11328;53.928;18.522;2023-08-17T02:26:35;20.20;99.90
22321;DHT22;11328;53.928;18.522;2023-08-17T02:29:02;20.20;99.90
22321;DHT22;11328;53.928;18.522;2023-08-17T02:31:29;20.20;99.90
22321;DHT22;11328;53.928;18.522;2023-08-17T02:33:55;20.20;99.90
22321;DHT22;11328;53.928;18.522;2023-08-17T02:36:27;20.10;99.90
22321;DHT22;11328;53.928;18.522;2023-08-17T02:38:55;20.10;99.90
22321;DHT22;11328;53.928;18.522;2023-08-17T02:41:22;20.10;99.90
22321;DHT22;11328;53.928;18.522;2023-08-17T02:43:49;20.10;99.90
22321;DHT22;11328;53.928;18.522;2023-08-17T02:46:16;20.20;99.90
22321;DHT22;11328;53.928;18.522;2023-08-17T02:48:43;20.20;99.90
22321;DHT22;11328;53.928;18.522;2023-08-17T02:51:10;20.20;99.90
22321;DHT22;11328;53.928;18.522;2023-08-17T02:53:37;20.20;99.90
22321;DHT22;11328;53.928;18.522;2023-08-17T02:56:04;20.20;99.90
22321;DHT22;11328;53.928;18.522;2023-08-17T02:58:30;20.20;99.90
22321;DHT22;11328;53.928;18.522;2023-08-17T03:00:57;20.20;99.90
22321;DHT22;11328;53.928;18.522;2023-08-17T03:03:24;20.30;99.90
22321;DHT22;11328;53.928;18.522;2023-08-17T03:05:51;20.20;99.90
22321;DHT22;11328;53.928;18.522;2023-08-17T03:08:18;20.20;99.90
22321;DHT22;11328;53.928;18.522;2023-08-17T03:10:45;20.10;99.90
22321;DHT22;11328;53.928;18.522;2023-08-17T03:13:12;20.10;99.90
22321;DHT22;11328;53.928;18.522;2023-08-17T03:15:39;20.00;99.90
22321;DHT22;11328;53.928;18.522;2023-08-17T03:18:07;19.90;99.90
22321;DHT22;11328;53.928;18.522;2023-08-17T03:20:34;19.90;99.90
22321;DHT22;11328;53.928;18.522;2023-08-17T03:23:01;19.90;99.90
22321;DHT22;11328;53.928;18.522;2023-08-17T03:25:28;20.00;99.90
22321;DHT22;11328;53.928;18.522;2023-08-17T03:27:55;19.90;99.90
22321;DHT22;11328;53.928;18.522;2023-08-17T03:30:21;19.90;99.90
22321;DHT22;11328;53.928;18.522;2023-08-17T03:32:48;19.90;99.90
22321;DHT22;11328;53.928;18.522;2023-08-17T03:35:15;19.80;99.90
22321;DHT22;11328;53.928;18.522;2023-08-17T03:37:42;20.00;99.90
22321;DHT22;11328;53.928;18.522;2023-08-17T03:40:09;20.00;99.90
22321;DHT22;11328;53.928;18.522;2023-08-17T03:42:37;20.10;99.90
22321;DHT22;11328;53.928;18.522;2023-08-17T03:45:04;20.10;99.90
22321;DHT22;11328;53.928;18.522;2023-08-17T03:47:31;20.20;99.90
22321;DHT22;11328;53.928;18.522;2023-08-17T03:49:58;20.20;99.90
22321;DHT22;11328;53.928;18.522;2023-08-17T03:52:25;20.30;99.90
22321;DHT22;11328;53.928;18.522;2023-08-17T03:54:52;20.20;99.90
22321;DHT22;11328;53.928;18.522;2023-08-17T03:57:19;20.20;99.90
22321;DHT22;11328;53.928;18.522;2023-08-17T03:59:46;20.10;99.90
22321;DHT22;11328;53.928;18.522;2023-08-17T04:02:13;20.20;99.90
22321;DHT22;11328;53.928;18.522;2023-08-17T04:04:40;20.30;99.90
22321;DHT22;11328;53.928;18.522;2023-08-17T04:07:07;20.40;99.90
22321;DHT22;11328;53.928;18.522;2023-08-17T04:09:34;20.50;99.90
22321;DHT22;11328;53.928;18.522;2023-08-17T04:12:01;20.50;99.90
22321;DHT22;11328;53.928;18.522;2023-08-17T04:14:30;20.50;99.90
22321;DHT22;11328;53.928;18.522;2023-08-17T04:16:57;20.40;99.90
22321;DHT22;11328;53.928;18.522;2023-08-17T04:19:24;20.40;99.90
22321;DHT22;11328;53.928;18.522;2023-08-17T04:21:51;20.10;99.90
22321;DHT22;11328;53.928;18.522;2023-08-17T04:24:18;19.90;99.90
22321;DHT22;11328;53.928;18.522;2023-08-17T04:26:45;19.90;99.90
22321;DHT22;11328;53.928;18.522;2023-08-17T04:29:13;19.80;99.90
22321;DHT22;11328;53.928;18.522;2023-08-17T04:31:39;19.80;99.90
22321;DHT22;11328;53.928;18.522;2023-08-17T04:34:06;19.70;99.90
22321;DHT22;11328;53.928;18.522;2023-08-17T04:36:34;19.60;99.90
22321;DHT22;11328;53.928;18.522;2023-08-17T04:39:00;19.70;99.90
22321;DHT22;11328;53.928;18.522;2023-08-17T04:41:27;19.60;99.90
22321;DHT22;11328;53.928;18.522;2023-08-17T04:43:54;19.60;99.90
22321;DHT22;11328;53.928;18.522;2023-08-17T04:46:21;19.50;99.90
22321;DHT22;11328;53.928;18.522;2023-08-17T04:48:48;19.40;99.90
22321;DHT22;11328;53.928;18.522;2023-08-17T04:51:16;19.40;99.90
22321;DHT22;11328;53.928;18.522;2023-08-17T04:53:43;19.40;99.90
22321;DHT22;11328;53.928;18.522;2023-08-17T04:56:10;19.40;99.90
22321;DHT22;11328;53.928;18.522;2023-08-17T04:58:37;19.40;99.90
22321;DHT22;11328;53.928;18.522;2023-08-17T05:01:04;19.50;99.90
22321;DHT22;11328;53.928;18.522;2023-08-17T05:03:31;19.40;99.90
22321;DHT22;11328;53.928;18.522;2023-08-17T05:06:00;19.40;99.90
22321;DHT22;11328;53.928;18.522;2023-08-17T05:08:27;19.50;99.90
22321;DHT22;11328;53.928;18.522;2023-08-17T05:10:54;19.50;99.90
22321;DHT22;11328;53.928;18.522;2023-08-17T05:13:21;19.50;99.90
22321;DHT22;11328;53.928;18.522;2023-08-17T05:15:49;19.40;99.90
22321;DHT22;11328;53.928;18.522;2023-08-17T05:18:17;19.50;99.90
22321;DHT22;11328;53.928;18.522;2023-08-17T05:20:48;19.50;99.90
22321;DHT22;11328;53.928;18.522;2023-08-17T05:23:15;19.40;99.90
22321;DHT22;11328;53.928;18.522;2023-08-17T05:25:46;19.40;99.90
22321;DHT22;11328;53.928;18.522;2023-08-17T05:28:14;19.40;99.90
22321;DHT22;11328;53.928;18.522;2023-08-17T05:30:41;19.40;99.90
22321;DHT22;11328;53.928;18.522;2023-08-17T05:33:08;19.40;99.90
22321;DHT22;11328;53.928;18.522;2023-08-17T05:35:35;19.40;99.90
22321;DHT22;11328;53.928;18.522;2023-08-17T05:38:02;19.50;99.90
22321;DHT22;11328;53.928;18.522;2023-08-17T05:40:32;19.40;99.90
22321;DHT22;11328;53.928;18.522;2023-08-17T05:42:59;19.50;99.90
22321;DHT22;11328;53.928;18.522;2023-08-17T05:45:26;19.50;99.90
22321;DHT22;11328;53.928;18.522;2023-08-17T05:47:53;19.40;99.90
22321;DHT22;11328;53.928;18.522;2023-08-17T05:50:20;19.40;99.90
22321;DHT22;11328;53.928;18.522;2023-08-17T05:52:47;19.50;99.90
22321;DHT22;11328;53.928;18.522;2023-08-17T05:55:14;19.60;99.90
22321;DHT22;11328;53.928;18.522;2023-08-17T05:57:41;19.70;99.90
22321;DHT22;11328;53.928;18.522;2023-08-17T06:00:08;19.70;99.90
22321;DHT22;11328;53.928;18.522;2023-08-17T06:02:39;19.70;99.90
22321;DHT22;11328;53.928;18.522;2023-08-17T06:05:07;19.80;99.90
22321;DHT22;11328;53.928;18.522;2023-08-17T06:07:35;19.80;99.90
22321;DHT22;11328;53.928;18.522;2023-08-17T06:10:04;19.80;99.90
22321;DHT22;11328;53.928;18.522;2023-08-17T06:12:33;19.90;99.90
22321;DHT22;11328;53.928;18.522;2023-08-17T06:15:02;19.80;99.90
22321;DHT22;11328;53.928;18.522;2023-08-17T06:17:29;19.80;99.90
22321;DHT22;11328;53.928;18.522;2023-08-17T06:19:56;19.90;99.90
22321;DHT22;11328;53.928;18.522;2023-08-17T06:22:23;20.00;99.90
22321;DHT22;11328;53.928;18.522;2023-08-17T06:24:50;19.90;99.90
22321;DHT22;11328;53.928;18.522;2023-08-17T06:27:18;20.00;99.90
22321;DHT22;11328;53.928;18.522;2023-08-17T06:29:45;20.00;99.90
22321;DHT22;11328;53.928;18.522;2023-08-17T06:32:12;20.00;99.90
22321;DHT22;11328;53.928;18.522;2023-08-17T06:34:39;19.90;99.90
22321;DHT22;11328;53.928;18.522;2023-08-17T06:37:06;19.90;99.90
22321;DHT22;11328;53.928;18.522;2023-08-17T06:39:33;19.90;99.90
22321;DHT22;11328;53.928;18.522;2023-08-17T06:42:00;19.90;99.90
22321;DHT22;11328;53.928;18.522;2023-08-17T06:44:27;19.80;99.90
22321;DHT22;11328;53.928;18.522;2023-08-17T06:46:55;19.70;99.90
22321;DHT22;11328;53.928;18.522;2023-08-17T06:49:23;19.80;99.90
22321;DHT22;11328;53.928;18.522;2023-08-17T06:51:50;19.90;99.90
22321;DHT22;11328;53.928;18.522;2023-08-17T06:54:17;19.90;99.90
22321;DHT22;11328;53.928;18.522;2023-08-17T06:56:44;19.90;99.90
22321;DHT22;11328;53.928;18.522;2023-08-17T06:59:11;20.00;99.90
22321;DHT22;11328;53.928;18.522;2023-08-17T07:01:38;19.90;99.90
22321;DHT22;11328;53.928;18.522;2023-08-17T07:04:05;19.80;99.90
22321;DHT22;11328;53.928;18.522;2023-08-17T07:06:32;19.80;99.90
22321;DHT22;11328;53.928;18.522;2023-08-17T07:08:59;19.80;99.90
22321;DHT22;11328;53.928;18.522;2023-08-17T07:11:26;19.80;99.90
22321;DHT22;11328;53.928;18.522;2023-08-17T07:13:53;19.90;99.90
22321;DHT22;11328;53.928;18.522;2023-08-17T07:16:20;19.90;99.90
22321;DHT22;11328;53.928;18.522;2023-08-17T08:20:53;19.10;99.90
22321;DHT22;11328;53.928;18.522;2023-08-17T08:23:20;21.00;99.90
22321;DHT22;11328;53.928;18.522;2023-08-17T08:25:47;21.00;99.90
22321;DHT22;11328;53.928;18.522;2023-08-17T08:28:13;21.00;99.90
22321;DHT22;11328;53.928;18.522;2023-08-17T08:30:40;21.10;99.90
22321;DHT22;11328;53.928;18.522;2023-08-17T08:33:07;21.30;99.90
22321;DHT22;11328;53.928;18.522;2023-08-17T08:35:35;21.30;99.90
22321;DHT22;11328;53.928;18.522;2023-08-17T08:38:02;21.30;99.90
22321;DHT22;11328;53.928;18.522;2023-08-17T08:40:29;21.40;99.90
22321;DHT22;11328;53.928;18.522;2023-08-17T08:42:57;21.40;99.90
22321;DHT22;11328;53.928;18.522;2023-08-17T08:45:27;21.50;99.90
22321;DHT22;11328;53.928;18.522;2023-08-17T08:47:57;21.50;99.90
22321;DHT22;11328;53.928;18.522;2023-08-17T08:50:29;21.60;99.90
22321;DHT22;11328;53.928;18.522;2023-08-17T08:52:59;21.70;99.90
22321;DHT22;11328;53.928;18.522;2023-08-17T08:55:30;21.80;99.90
22321;DHT22;11328;53.928;18.522;2023-08-17T08:58:04;21.80;99.90
22321;DHT22;11328;53.928;18.522;2023-08-17T09:00:33;21.80;99.90
22321;DHT22;11328;53.928;18.522;2023-08-17T09:03:02;21.90;99.90
22321;DHT22;11328;53.928;18.522;2023-08-17T09:05:34;22.00;99.90
22321;DHT22;11328;53.928;18.522;2023-08-17T09:08:02;22.00;99.90
22321;DHT22;11328;53.928;18.522;2023-08-17T09:10:31;22.20;99.90
22321;DHT22;11328;53.928;18.522;2023-08-17T09:13:03;22.30;99.90
22321;DHT22;11328;53.928;18.522;2023-08-17T09:15:30;22.20;99.90
22321;DHT22;11328;53.928;18.522;2023-08-17T09:17:57;22.20;99.90
22321;DHT22;11328;53.928;18.522;2023-08-17T09:20:46;22.20;99.90
22321;DHT22;11328;53.928;18.522;2023-08-17T09:23:18;22.50;99.90
22321;DHT22;11328;53.928;18.522;2023-08-17T09:25:49;22.50;99.90
22321;DHT22;11328;53.928;18.522;2023-08-17T09:28:19;22.70;99.90
22321;DHT22;11328;53.928;18.522;2023-08-17T09:30:57;22.90;99.90
22321;DHT22;11328;53.928;18.522;2023-08-17T09:33:29;23.10;99.90
22321;DHT22;11328;53.928;18.522;2023-08-17T09:35:59;23.20;99.90
22321;DHT22;11328;53.928;18.522;2023-08-17T09:38:27;23.40;99.90
22321;DHT22;11328;53.928;18.522;2023-08-17T09:40:55;23.70;99.90
22321;DHT22;11328;53.928;18.522;2023-08-17T09:43:24;23.90;99.90
22321;DHT22;11328;53.928;18.522;2023-08-17T09:45:55;24.20;99.90
22321;DHT22;11328;53.928;18.522;2023-08-17T09:48:25;24.50;99.90
22321;DHT22;11328;53.928;18.522;2023-08-17T09:50:59;24.60;99.90
22321;DHT22;11328;53.928;18.522;2023-08-17T09:53:29;24.70;99.90
22321;DHT22;11328;53.928;18.522;2023-08-17T09:55:57;24.90;99.90
22321;DHT22;11328;53.928;18.522;2023-08-17T09:58:25;24.90;99.90
22321;DHT22;11328;53.928;18.522;2023-08-17T10:00:58;24.80;99.90
22321;DHT22;11328;53.928;18.522;2023-08-17T10:03:33;24.90;99.90
22321;DHT22;11328;53.928;18.522;2023-08-17T10:06:05;24.80;99.90
22321;DHT22;11328;53.928;18.522;2023-08-17T10:08:42;24.80;99.90
22321;DHT22;11328;53.928;18.522;2023-08-17T10:11:13;24.90;99.90
22321;DHT22;11328;53.928;18.522;2023-08-17T10:14:15;25.00;99.90
22321;DHT22;11328;53.928;18.522;2023-08-17T10:17:03;25.30;99.90
22321;DHT22;11328;53.928;18.522;2023-08-17T10:19:37;25.60;99.90
22321;DHT22;11328;53.928;18.522;2023-08-17T10:25:03;25.60;99.90
22321;DHT22;11328;53.928;18.522;2023-08-17T10:27:34;25.50;99.90
22321;DHT22;11328;53.928;18.522;2023-08-17T10:30:01;25.70;99.90
22321;DHT22;11328;53.928;18.522;2023-08-17T10:32:35;25.80;99.90
22321;DHT22;11328;53.928;18.522;2023-08-17T10:35:04;26.10;99.90
22321;DHT22;11328;53.928;18.522;2023-08-17T10:37:32;26.10;99.90
22321;DHT22;11328;53.928;18.522;2023-08-17T10:40:00;26.40;99.90
22321;DHT22;11328;53.928;18.522;2023-08-17T10:42:53;26.60;99.90
22321;DHT22;11328;53.928;18.522;2023-08-17T10:50:36;26.50;99.90
22321;DHT22;11328;53.928;18.522;2023-08-17T10:53:12;26.40;99.90
22321;DHT22;11328;53.928;18.522;2023-08-17T10:55:45;26.30;99.90
22321;DHT22;11328;53.928;18.522;2023-08-17T10:58:18;26.50;99.90
22321;DHT22;11328;53.928;18.522;2023-08-17T11:00:45;26.60;99.90
22321;DHT22;11328;53.928;18.522;2023-08-17T11:03:19;26.70;99.90
22321;DHT22;11328;53.928;18.522;2023-08-17T11:05:56;26.70;99.90
22321;DHT22;11328;53.928;18.522;2023-08-17T11:11:19;26.80;99.90
22321;DHT22;11328;53.928;18.522;2023-08-17T11:13:48;26.80;99.90
22321;DHT22;11328;53.928;18.522;2023-08-17T11:16:21;26.80;99.90
22321;DHT22;11328;53.928;18.522;2023-08-17T11:18:50;27.10;99.90
22321;DHT22;11328;53.928;18.522;2023-08-17T11:21:18;27.30;99.90
22321;DHT22;11328;53.928;18.522;2023-08-17T11:23:46;27.40;99.90
22321;DHT22;11328;53.928;18.522;2023-08-17T11:26:17;27.50;99.90
22321;DHT22;11328;53.928;18.522;2023-08-17T11:28:44;27.50;99.90
22321;DHT22;11328;53.928;18.522;2023-08-17T11:31:13;27.80;99.90
22321;DHT22;11328;53.928;18.522;2023-08-17T11:33:43;27.90;99.90
22321;DHT22;11328;53.928;18.522;2023-08-17T11:36:12;27.70;99.90
22321;DHT22;11328;53.928;18.522;2023-08-17T11:38:41;27.70;99.90
22321;DHT22;11328;53.928;18.522;2023-08-17T11:41:09;27.70;99.90
22321;DHT22;11328;53.928;18.522;2023-08-17T11:43:43;27.60;99.90
22321;DHT22;11328;53.928;18.522;2023-08-17T11:46:12;27.70;99.90
22321;DHT22;11328;53.928;18.522;2023-08-17T11:48:39;27.60;99.90
22321;DHT22;11328;53.928;18.522;2023-08-17T11:51:06;27.60;99.90
22321;DHT22;11328;53.928;18.522;2023-08-17T11:53:37;27.70;99.90
22321;DHT22;11328;53.928;18.522;2023-08-17T11:56:07;27.50;99.90
22321;DHT22;11328;53.928;18.522;2023-08-17T11:58:46;27.30;99.90
22321;DHT22;11328;53.928;18.522;2023-08-17T12:01:14;27.10;99.90
22321;DHT22;11328;53.928;18.522;2023-08-17T12:03:44;26.90;99.90
22321;DHT22;11328;53.928;18.522;2023-08-17T12:06:12;26.90;99.90
22321;DHT22;11328;53.928;18.522;2023-08-17T12:08:43;26.90;99.90
22321;DHT22;11328;53.928;18.522;2023-08-17T12:11:15;27.00;99.90
22321;DHT22;11328;53.928;18.522;2023-08-17T12:13:49;26.90;99.90
22321;DHT22;11328;53.928;18.522;2023-08-17T12:16:18;26.80;99.90
22321;DHT22;11328;53.928;18.522;2023-08-17T12:18:50;26.60;99.90
22321;DHT22;11328;53.928;18.522;2023-08-17T12:21:22;26.90;99.90
22321;DHT22;11328;53.928;18.522;2023-08-17T12:23:50;27.10;99.90
22321;DHT22;11328;53.928;18.522;2023-08-17T12:26:21;27.00;99.90
22321;DHT22;11328;53.928;18.522;2023-08-17T12:28:51;27.10;99.90
22321;DHT22;11328;53.928;18.522;2023-08-17T12:31:22;27.10;99.90
22321;DHT22;11328;53.928;18.522;2023-08-17T12:33:52;27.00;99.90
22321;DHT22;11328;53.928;18.522;2023-08-17T12:36:19;27.00;99.90
22321;DHT22;11328;53.928;18.522;2023-08-17T12:38:48;27.00;99.90
22321;DHT22;11328;53.928;18.522;2023-08-17T12:41:16;27.10;99.90
22321;DHT22;11328;53.928;18.522;2023-08-17T12:43:44;27.20;99.90
22321;DHT22;11328;53.928;18.522;2023-08-17T12:46:11;27.20;99.90
22321;DHT22;11328;53.928;18.522;2023-08-17T12:48:38;27.30;99.90
22321;DHT22;11328;53.928;18.522;2023-08-17T12:51:06;27.30;99.90
22321;DHT22;11328;53.928;18.522;2023-08-17T12:53:32;27.40;99.90
22321;DHT22;11328;53.928;18.522;2023-08-17T12:55:59;27.20;99.90
22321;DHT22;11328;53.928;18.522;2023-08-17T12:58:26;27.20;99.90
22321;DHT22;11328;53.928;18.522;2023-08-17T13:00:53;27.10;99.90
22321;DHT22;11328;53.928;18.522;2023-08-17T13:03:23;27.00;99.90
22321;DHT22;11328;53.928;18.522;2023-08-17T13:05:50;27.10;99.90
22321;DHT22;11328;53.928;18.522;2023-08-17T13:08:17;27.20;99.90
22321;DHT22;11328;53.928;18.522;2023-08-17T13:10:44;27.00;99.90
22321;DHT22;11328;53.928;18.522;2023-08-17T13:13:11;26.90;99.90
22321;DHT22;11328;53.928;18.522;2023-08-17T13:15:39;26.60;99.90
22321;DHT22;11328;53.928;18.522;2023-08-17T13:18:06;26.60;99.90
22321;DHT22;11328;53.928;18.522;2023-08-17T13:20:33;26.70;99.90
22321;DHT22;11328;53.928;18.522;2023-08-17T13:23:00;26.60;99.90
22321;DHT22;11328;53.928;18.522;2023-08-17T13:25:27;26.60;99.90
22321;DHT22;11328;53.928;18.522;2023-08-17T13:27:54;26.70;99.90
22321;DHT22;11328;53.928;18.522;2023-08-17T13:30:21;26.70;99.90
22321;DHT22;11328;53.928;18.522;2023-08-17T13:32:48;26.60;99.90
22321;DHT22;11328;53.928;18.522;2023-08-17T13:35:15;26.40;99.90
22321;DHT22;11328;53.928;18.522;2023-08-17T13:37:42;26.60;99.90
22321;DHT22;11328;53.928;18.522;2023-08-17T13:40:09;26.70;99.90
22321;DHT22;11328;53.928;18.522;2023-08-17T13:42:36;26.70;99.90
22321;DHT22;11328;53.928;18.522;2023-08-17T13:45:04;26.60;99.90
22321;DHT22;11328;53.928;18.522;2023-08-17T13:47:31;26.90;99.90
22321;DHT22;11328;53.928;18.522;2023-08-17T13:49:58;26.70;99.90
22321;DHT22;11328;53.928;18.522;2023-08-17T13:52:25;26.80;99.90
22321;DHT22;11328;53.928;18.522;2023-08-17T13:54:53;26.70;99.90
22321;DHT22;11328;53.928;18.522;2023-08-17T13:57:20;26.80;99.90
22321;DHT22;11328;53.928;18.522;2023-08-17T13:59:47;26.80;99.90
22321;DHT22;11328;53.928;18.522;2023-08-17T14:02:14;26.80;99.90
22321;DHT22;11328;53.928;18.522;2023-08-17T14:04:41;26.80;99.90
22321;DHT22;11328;53.928;18.522;2023-08-17T14:07:08;26.80;99.90
22321;DHT22;11328;53.928;18.522;2023-08-17T14:09:35;26.90;99.90
22321;DHT22;11328;53.928;18.522;2023-08-17T14:12:02;27.00;99.90
22321;DHT22;11328;53.928;18.522;2023-08-17T14:14:31;27.00;99.90
22321;DHT22;11328;53.928;18.522;2023-08-17T14:16:59;27.00;99.90
22321;DHT22;11328;53.928;18.522;2023-08-17T14:19:27;27.00;99.90
22321;DHT22;11328;53.928;18.522;2023-08-17T14:21:54;27.10;99.90
22321;DHT22;11328;53.928;18.522;2023-08-17T14:24:21;27.10;99.90
22321;DHT22;11328;53.928;18.522;2023-08-17T14:26:48;27.10;99.90
22321;DHT22;11328;53.928;18.522;2023-08-17T14:29:15;27.20;99.90
22321;DHT22;11328;53.928;18.522;2023-08-17T14:31:42;27.10;99.90
22321;DHT22;11328;53.928;18.522;2023-08-17T14:34:08;27.10;99.90
22321;DHT22;11328;53.928;18.522;2023-08-17T14:36:35;27.10;99.90
22321;DHT22;11328;53.928;18.522;2023-08-17T14:39:02;27.00;99.90
22321;DHT22;11328;53.928;18.522;2023-08-17T14:41:30;26.90;99.90
22321;DHT22;11328;53.928;18.522;2023-08-17T14:44:00;26.90;99.90
22321;DHT22;11328;53.928;18.522;2023-08-17T14:46:29;27.00;99.90
22321;DHT22;11328;53.928;18.522;2023-08-17T14:48:57;27.00;99.90
22321;DHT22;11328;53.928;18.522;2023-08-17T14:51:24;26.90;99.90
22321;DHT22;11328;53.928;18.522;2023-08-17T14:53:56;26.80;99.90
22321;DHT22;11328;53.928;18.522;2023-08-17T14:56:23;26.70;99.90
22321;DHT22;11328;53.928;18.522;2023-08-17T14:58:50;26.70;99.90
22321;DHT22;11328;53.928;18.522;2023-08-17T15:01:17;26.70;99.90
22321;DHT22;11328;53.928;18.522;2023-08-17T15:03:45;26.70;99.90
22321;DHT22;11328;53.928;18.522;2023-08-17T15:06:13;26.70;99.90
22321;DHT22;11328;53.928;18.522;2023-08-17T15:08:59;26.70;99.90
22321;DHT22;11328;53.928;18.522;2023-08-17T15:11:26;26.70;99.90
22321;DHT22;11328;53.928;18.522;2023-08-17T15:13:53;26.60;99.90
22321;DHT22;11328;53.928;18.522;2023-08-17T15:16:20;26.60;99.90
22321;DHT22;11328;53.928;18.522;2023-08-17T15:18:52;26.60;99.90
22321;DHT22;11328;53.928;18.522;2023-08-17T15:21:20;26.50;99.90
22321;DHT22;11328;53.928;18.522;2023-08-17T15:23:47;26.40;99.90
22321;DHT22;11328;53.928;18.522;2023-08-17T15:26:14;26.10;99.90
22321;DHT22;11328;53.928;18.522;2023-08-17T15:28:41;26.10;99.90
22321;DHT22;11328;53.928;18.522;2023-08-17T15:31:08;26.00;99.90
22321;DHT22;11328;53.928;18.522;2023-08-17T15:33:39;26.00;99.90
22321;DHT22;11328;53.928;18.522;2023-08-17T15:36:07;26.00;99.90
22321;DHT22;11328;53.928;18.522;2023-08-17T15:38:34;25.90;99.90
22321;DHT22;11328;53.928;18.522;2023-08-17T15:41:01;25.90;99.90
22321;DHT22;11328;53.928;18.522;2023-08-17T15:43:30;25.80;99.90
22321;DHT22;11328;53.928;18.522;2023-08-17T15:45:57;25.70;99.90
22321;DHT22;11328;53.928;18.522;2023-08-17T15:48:24;25.60;99.90
22321;DHT22;11328;53.928;18.522;2023-08-17T15:50:51;25.40;99.90
22321;DHT22;11328;53.928;18.522;2023-08-17T15:53:18;25.50;99.90
22321;DHT22;11328;53.928;18.522;2023-08-17T15:55:45;25.50;99.90
22321;DHT22;11328;53.928;18.522;2023-08-17T15:58:12;25.40;99.90
22321;DHT22;11328;53.928;18.522;2023-08-17T16:00:39;25.40;99.90
22321;DHT22;11328;53.928;18.522;2023-08-17T16:03:08;25.30;99.90
22321;DHT22;11328;53.928;18.522;2023-08-17T16:05:38;25.40;99.90
22321;DHT22;11328;53.928;18.522;2023-08-17T16:08:05;25.20;99.90
22321;DHT22;11328;53.928;18.522;2023-08-17T16:10:32;25.20;99.90
22321;DHT22;11328;53.928;18.522;2023-08-17T16:13:02;25.20;99.90
22321;DHT22;11328;53.928;18.522;2023-08-17T16:15:29;25.00;99.90
22321;DHT22;11328;53.928;18.522;2023-08-17T16:17:56;24.90;99.90
22321;DHT22;11328;53.928;18.522;2023-08-17T16:20:26;24.80;99.90
22321;DHT22;11328;53.928;18.522;2023-08-17T16:22:56;24.80;99.90
22321;DHT22;11328;53.928;18.522;2023-08-17T16:25:23;24.90;99.90
22321;DHT22;11328;53.928;18.522;2023-08-17T16:27:55;24.80;99.90
22321;DHT22;11328;53.928;18.522;2023-08-17T16:30:25;24.80;99.90
22321;DHT22;11328;53.928;18.522;2023-08-17T16:32:52;24.80;99.90
22321;DHT22;11328;53.928;18.522;2023-08-17T16:35:19;24.70;99.90
22321;DHT22;11328;53.928;18.522;2023-08-17T16:37:46;24.60;99.90
22321;DHT22;11328;53.928;18.522;2023-08-17T16:40:13;24.50;99.90
22321;DHT22;11328;53.928;18.522;2023-08-17T16:42:57;24.50;99.90